sensor_id;sensor_type;location;lat;lon;timestamp;P1;durP1;ratioP1;P2;durP2;ratioP2
67655;SDS011;54443;51.464;-2.584;2022-08-19T00:01:36;0.73;;;0.57;;
67655;SDS011;54443;51.464;-2.584;2022-08-19T00:04:03;0.52;;;0.52;;
67655;SDS011;54443;51.464;-2.584;2022-08-19T00:06:30;1.60;;;0.43;;
67655;SDS011;54443;51.464;-2.584;2022-08-19T00:08:56;0.40;;;0.38;;
67655;SDS011;54443;51.464;-2.584;2022-08-19T00:11:23;4.03;;;0.52;;
67655;SDS011;54443;51.464;-2.584;2022-08-19T00:13:49;0.85;;;0.57;;
67655;SDS011;54443;51.464;-2.584;2022-08-19T00:16:15;1.20;;;0.63;;
67655;SDS011;54443;51.464;-2.584;2022-08-19T00:18:44;2.03;;;0.68;;
67655;SDS011;54443;51.464;-2.584;2022-08-19T00:21:10;1.90;;;0.60;;
67655;SDS011;54443;51.464;-2.584;2022-08-19T00:23:35;4.00;;;1.17;;
67655;SDS011;54443;51.464;-2.584;2022-08-19T00:26:02;1.17;;;0.57;;
67655;SDS011;54443;51.464;-2.584;2022-08-19T00:28:31;2.63;;;0.98;;
67655;SDS011;54443;51.464;-2.584;2022-08-19T00:30:58;2.83;;;0.80;;
67655;SDS011;54443;51.464;-2.584;2022-08-19T00:33:24;4.55;;;0.90;;
67655;SDS011;54443;51.464;-2.584;2022-08-19T00:35:49;5.07;;;0.98;;
67655;SDS011;54443;51.464;-2.584;2022-08-19T00:38:15;3.15;;;0.70;;
67655;SDS011;54443;51.464;-2.584;2022-08-19T00:40:42;4.18;;;0.80;;
67655;SDS011;54443;51.464;-2.584;2022-08-19T00:43:11;4.40;;;0.75;;
67655;SDS011;54443;51.464;-2.584;2022-08-19T00:45:38;1.38;;;0.60;;
67655;SDS011;54443;51.464;-2.584;2022-08-19T00:48:06;1.95;;;0.70;;
67655;SDS011;54443;51.464;-2.584;2022-08-19T00:50:32;4.05;;;0.70;;
67655;SDS011;54443;51.464;-2.584;2022-08-19T00:52:58;2.25;;;0.60;;
67655;SDS011;54443;51.464;-2.584;2022-08-19T00:55:25;4.90;;;0.70;;
67655;SDS011;54443;51.464;-2.584;2022-08-19T00:57:55;3.88;;;0.73;;
67655;SDS011;54443;51.464;-2.584;2022-08-19T01:00:23;2.95;;;0.80;;
67655;SDS011;54443;51.464;-2.584;2022-08-19T01:02:50;2.00;;;0.60;;
67655;SDS011;54443;51.464;-2.584;2022-08-19T01:05:20;3.75;;;1.13;;
67655;SDS011;54443;51.464;-2.584;2022-08-19T01:07:47;3.30;;;0.73;;
67655;SDS011;54443;51.464;-2.584;2022-08-19T01:10:14;0.73;;;0.50;;
67655;SDS011;54443;51.464;-2.584;2022-08-19T01:12:44;0.70;;;0.55;;
67655;SDS011;54443;51.464;-2.584;2022-08-19T01:15:11;4.13;;;0.80;;
67655;SDS011;54443;51.464;-2.584;2022-08-19T01:17:40;0.88;;;0.55;;
67655;SDS011;54443;51.464;-2.584;2022-08-19T01:20:09;1.25;;;0.70;;
67655;SDS011;54443;51.464;-2.584;2022-08-19T01:22:46;1.10;;;0.50;;
67655;SDS011;54443;51.464;-2.584;2022-08-19T01:25:18;3.85;;;0.70;;
67655;SDS011;54443;51.464;-2.584;2022-08-19T01:27:47;3.28;;;1.35;;
67655;SDS011;54443;51.464;-2.584;2022-08-19T01:30:16;2.72;;;1.02;;
67655;SDS011;54443;51.464;-2.584;2022-08-19T01:32:45;2.45;;;0.60;;
67655;SDS011;54443;51.464;-2.584;2022-08-19T01:35:11;2.45;;;0.77;;
67655;SDS011;54443;51.464;-2.584;2022-08-19T01:37:47;1.73;;;0.80;;
67655;SDS011;54443;51.464;-2.584;2022-08-19T01:40:19;0.75;;;0.60;;
67655;SDS011;54443;51.464;-2.584;2022-08-19T01:42:49;3.22;;;1.00;;
67655;SDS011;54443;51.464;-2.584;2022-08-19T01:45:15;0.70;;;0.70;;
67655;SDS011;54443;51.464;-2.584;2022-08-19T01:47:41;2.28;;;0.75;;
67655;SDS011;54443;51.464;-2.584;2022-08-19T01:50:07;1.65;;;0.85;;
67655;SDS011;54443;51.464;-2.584;2022-08-19T01:52:35;3.58;;;1.00;;
67655;SDS011;54443;51.464;-2.584;2022-08-19T01:55:01;2.40;;;1.00;;
67655;SDS011;54443;51.464;-2.584;2022-08-19T01:57:27;4.05;;;1.00;;
67655;SDS011;54443;51.464;-2.584;2022-08-19T01:59:52;3.67;;;1.10;;
67655;SDS011;54443;51.464;-2.584;2022-08-19T02:02:18;5.93;;;1.10;;
67655;SDS011;54443;51.464;-2.584;2022-08-19T02:04:43;2.80;;;1.08;;
67655;SDS011;54443;51.464;-2.584;2022-08-19T02:07:10;3.33;;;1.17;;
67655;SDS011;54443;51.464;-2.584;2022-08-19T02:09:36;5.57;;;1.65;;
67655;SDS011;54443;51.464;-2.584;2022-08-19T02:12:02;3.83;;;1.30;;
67655;SDS011;54443;51.464;-2.584;2022-08-19T02:14:28;3.28;;;1.38;;
67655;SDS011;54443;51.464;-2.584;2022-08-19T02:16:54;4.78;;;1.33;;
67655;SDS011;54443;51.464;-2.584;2022-08-19T02:19:20;2.13;;;1.30;;
67655;SDS011;54443;51.464;-2.584;2022-08-19T02:21:46;6.55;;;1.92;;
67655;SDS011;54443;51.464;-2.584;2022-08-19T02:24:11;3.75;;;1.55;;
67655;SDS011;54443;51.464;-2.584;2022-08-19T02:26:37;3.83;;;1.33;;
67655;SDS011;54443;51.464;-2.584;2022-08-19T02:29:02;6.72;;;1.50;;
67655;SDS011;54443;51.464;-2.584;2022-08-19T02:31:28;2.63;;;1.17;;
67655;SDS011;54443;51.464;-2.584;2022-08-19T02:33:54;4.20;;;1.70;;
67655;SDS011;54443;51.464;-2.584;2022-08-19T02:36:20;4.50;;;1.20;;
67655;SDS011;54443;51.464;-2.584;2022-08-19T02:38:46;6.70;;;1.60;;
67655;SDS011;54443;51.464;-2.584;2022-08-19T02:41:17;4.25;;;1.52;;
67655;SDS011;54443;51.464;-2.584;2022-08-19T02:43:44;3.40;;;1.10;;
67655;SDS011;54443;51.464;-2.584;2022-08-19T02:46:21;6.05;;;1.50;;
67655;SDS011;54443;51.464;-2.584;2022-08-19T02:48:49;4.38;;;1.38;;
67655;SDS011;54443;51.464;-2.584;2022-08-19T02:51:19;5.88;;;1.50;;
67655;SDS011;54443;51.464;-2.584;2022-08-19T02:53:47;7.63;;;1.35;;
67655;SDS011;54443;51.464;-2.584;2022-08-19T02:56:12;8.00;;;1.40;;
67655;SDS011;54443;51.464;-2.584;2022-08-19T02:58:38;4.38;;;1.63;;
67655;SDS011;54443;51.464;-2.584;2022-08-19T03:01:04;3.97;;;1.45;;
67655;SDS011;54443;51.464;-2.584;2022-08-19T03:03:29;5.15;;;1.33;;
67655;SDS011;54443;51.464;-2.584;2022-08-19T03:06:05;5.85;;;1.38;;
67655;SDS011;54443;51.464;-2.584;2022-08-19T03:08:32;7.03;;;1.17;;
67655;SDS011;54443;51.464;-2.584;2022-08-19T03:10:57;5.63;;;1.70;;
67655;SDS011;54443;51.464;-2.584;2022-08-19T03:13:23;5.85;;;1.38;;
67655;SDS011;54443;51.464;-2.584;2022-08-19T03:15:49;8.50;;;1.75;;
67655;SDS011;54443;51.464;-2.584;2022-08-19T03:18:14;3.20;;;1.13;;
67655;SDS011;54443;51.464;-2.584;2022-08-19T03:20:41;5.60;;;1.55;;
67655;SDS011;54443;51.464;-2.584;2022-08-19T03:23:11;6.30;;;1.33;;
67655;SDS011;54443;51.464;-2.584;2022-08-19T03:25:41;6.35;;;1.48;;
67655;SDS011;54443;51.464;-2.584;2022-08-19T03:28:12;7.22;;;1.80;;
67655;SDS011;54443;51.464;-2.584;2022-08-19T03:30:39;4.68;;;1.38;;
67655;SDS011;54443;51.464;-2.584;2022-08-19T03:33:06;4.68;;;1.27;;
67655;SDS011;54443;51.464;-2.584;2022-08-19T03:35:32;9.02;;;1.52;;
67655;SDS011;54443;51.464;-2.584;2022-08-19T03:37:58;5.88;;;1.50;;
67655;SDS011;54443;51.464;-2.584;2022-08-19T03:40:24;8.77;;;1.85;;
67655;SDS011;54443;51.464;-2.584;2022-08-19T03:42:50;7.13;;;1.60;;
67655;SDS011;54443;51.464;-2.584;2022-08-19T03:45:16;7.22;;;1.75;;
67655;SDS011;54443;51.464;-2.584;2022-08-19T03:47:41;9.75;;;1.95;;
67655;SDS011;54443;51.464;-2.584;2022-08-19T03:50:07;8.25;;;1.90;;
67655;SDS011;54443;51.464;-2.584;2022-08-19T03:52:33;15.48;;;2.28;;
67655;SDS011;54443;51.464;-2.584;2022-08-19T03:55:00;10.70;;;1.80;;
67655;SDS011;54443;51.464;-2.584;2022-08-19T03:57:26;11.50;;;1.73;;
67655;SDS011;54443;51.464;-2.584;2022-08-19T03:59:52;11.32;;;2.20;;
67655;SDS011;54443;51.464;-2.584;2022-08-19T04:02:17;9.40;;;1.73;;
67655;SDS011;54443;51.464;-2.584;2022-08-19T04:04:43;13.77;;;2.55;;
67655;SDS011;54443;51.464;-2.584;2022-08-19T04:07:09;12.82;;;2.58;;
67655;SDS011;54443;51.464;-2.584;2022-08-19T04:09:36;11.27;;;2.30;;
67655;SDS011;54443;51.464;-2.584;2022-08-19T04:12:02;10.30;;;2.30;;
67655;SDS011;54443;51.464;-2.584;2022-08-19T04:14:30;9.13;;;1.90;;
67655;SDS011;54443;51.464;-2.584;2022-08-19T04:16:57;16.73;;;2.85;;
67655;SDS011;54443;51.464;-2.584;2022-08-19T04:19:23;10.48;;;2.78;;
67655;SDS011;54443;51.464;-2.584;2022-08-19T04:21:50;21.27;;;2.85;;
67655;SDS011;54443;51.464;-2.584;2022-08-19T04:24:16;11.95;;;2.58;;
67655;SDS011;54443;51.464;-2.584;2022-08-19T04:26:43;8.93;;;2.33;;
67655;SDS011;54443;51.464;-2.584;2022-08-19T04:29:13;9.80;;;2.40;;
67655;SDS011;54443;51.464;-2.584;2022-08-19T04:31:42;9.55;;;2.40;;
67655;SDS011;54443;51.464;-2.584;2022-08-19T04:34:09;10.20;;;2.30;;
67655;SDS011;54443;51.464;-2.584;2022-08-19T04:36:36;10.45;;;2.83;;
67655;SDS011;54443;51.464;-2.584;2022-08-19T04:39:07;21.88;;;2.60;;
67655;SDS011;54443;51.464;-2.584;2022-08-19T04:41:35;11.32;;;3.17;;
67655;SDS011;54443;51.464;-2.584;2022-08-19T04:44:20;12.10;;;2.72;;
67655;SDS011;54443;51.464;-2.584;2022-08-19T04:46:46;8.98;;;2.33;;
67655;SDS011;54443;51.464;-2.584;2022-08-19T04:49:13;9.65;;;2.53;;
67655;SDS011;54443;51.464;-2.584;2022-08-19T04:51:40;10.75;;;2.45;;
67655;SDS011;54443;51.464;-2.584;2022-08-19T04:54:07;14.15;;;2.28;;
67655;SDS011;54443;51.464;-2.584;2022-08-19T04:56:32;15.27;;;2.50;;
67655;SDS011;54443;51.464;-2.584;2022-08-19T04:58:58;12.60;;;2.70;;
67655;SDS011;54443;51.464;-2.584;2022-08-19T05:01:28;9.95;;;2.38;;
67655;SDS011;54443;51.464;-2.584;2022-08-19T05:03:54;13.30;;;2.45;;
67655;SDS011;54443;51.464;-2.584;2022-08-19T05:06:21;14.63;;;3.20;;
67655;SDS011;54443;51.464;-2.584;2022-08-19T05:08:47;17.25;;;3.00;;
67655;SDS011;54443;51.464;-2.584;2022-08-19T05:11:15;12.25;;;3.35;;
67655;SDS011;54443;51.464;-2.584;2022-08-19T05:13:43;16.13;;;3.40;;
67655;SDS011;54443;51.464;-2.584;2022-08-19T05:16:09;18.42;;;2.97;;
67655;SDS011;54443;51.464;-2.584;2022-08-19T05:18:36;11.60;;;3.25;;
67655;SDS011;54443;51.464;-2.584;2022-08-19T05:21:20;11.43;;;3.38;;
67655;SDS011;54443;51.464;-2.584;2022-08-19T05:24:05;13.07;;;3.22;;
67655;SDS011;54443;51.464;-2.584;2022-08-19T05:26:38;8.18;;;3.05;;
67655;SDS011;54443;51.464;-2.584;2022-08-19T05:29:04;12.63;;;2.63;;
67655;SDS011;54443;51.464;-2.584;2022-08-19T05:31:31;10.77;;;2.50;;
67655;SDS011;54443;51.464;-2.584;2022-08-19T05:33:57;14.95;;;3.13;;
67655;SDS011;54443;51.464;-2.584;2022-08-19T05:36:24;13.40;;;3.08;;
67655;SDS011;54443;51.464;-2.584;2022-08-19T05:38:53;15.45;;;3.08;;
67655;SDS011;54443;51.464;-2.584;2022-08-19T05:41:18;10.05;;;2.75;;
67655;SDS011;54443;51.464;-2.584;2022-08-19T05:43:45;9.40;;;2.92;;
67655;SDS011;54443;51.464;-2.584;2022-08-19T05:46:15;12.98;;;2.90;;
67655;SDS011;54443;51.464;-2.584;2022-08-19T05:48:44;11.82;;;3.97;;
67655;SDS011;54443;51.464;-2.584;2022-08-19T05:51:10;12.32;;;2.55;;
67655;SDS011;54443;51.464;-2.584;2022-08-19T05:53:36;8.57;;;2.60;;
67655;SDS011;54443;51.464;-2.584;2022-08-19T05:56:05;10.25;;;2.63;;
67655;SDS011;54443;51.464;-2.584;2022-08-19T05:58:36;7.90;;;2.28;;
67655;SDS011;54443;51.464;-2.584;2022-08-19T06:01:03;7.13;;;2.42;;
67655;SDS011;54443;51.464;-2.584;2022-08-19T06:03:31;9.45;;;2.45;;
67655;SDS011;54443;51.464;-2.584;2022-08-19T06:05:57;8.30;;;2.33;;
67655;SDS011;54443;51.464;-2.584;2022-08-19T06:08:24;7.13;;;2.33;;
67655;SDS011;54443;51.464;-2.584;2022-08-19T06:10:50;13.73;;;2.55;;
67655;SDS011;54443;51.464;-2.584;2022-08-19T06:13:16;13.55;;;2.50;;
67655;SDS011;54443;51.464;-2.584;2022-08-19T06:15:42;11.65;;;2.15;;
67655;SDS011;54443;51.464;-2.584;2022-08-19T06:18:09;8.40;;;2.10;;
67655;SDS011;54443;51.464;-2.584;2022-08-19T06:20:34;8.13;;;1.90;;
67655;SDS011;54443;51.464;-2.584;2022-08-19T06:23:00;12.63;;;2.03;;
67655;SDS011;54443;51.464;-2.584;2022-08-19T06:25:25;7.15;;;1.75;;
67655;SDS011;54443;51.464;-2.584;2022-08-19T06:27:51;10.30;;;2.00;;
67655;SDS011;54443;51.464;-2.584;2022-08-19T06:30:16;9.50;;;2.00;;
67655;SDS011;54443;51.464;-2.584;2022-08-19T06:32:42;4.65;;;1.52;;
67655;SDS011;54443;51.464;-2.584;2022-08-19T06:35:07;7.53;;;2.08;;
67655;SDS011;54443;51.464;-2.584;2022-08-19T06:37:33;6.25;;;1.48;;
67655;SDS011;54443;51.464;-2.584;2022-08-19T06:39:58;8.23;;;2.00;;
67655;SDS011;54443;51.464;-2.584;2022-08-19T06:42:24;9.02;;;2.35;;
67655;SDS011;54443;51.464;-2.584;2022-08-19T06:44:49;8.13;;;2.05;;
67655;SDS011;54443;51.464;-2.584;2022-08-19T06:47:19;5.43;;;1.60;;
67655;SDS011;54443;51.464;-2.584;2022-08-19T06:49:45;4.90;;;1.52;;
67655;SDS011;54443;51.464;-2.584;2022-08-19T06:52:11;5.68;;;1.65;;
67655;SDS011;54443;51.464;-2.584;2022-08-19T06:54:37;8.02;;;1.42;;
67655;SDS011;54443;51.464;-2.584;2022-08-19T06:57:04;6.05;;;1.67;;
67655;SDS011;54443;51.464;-2.584;2022-08-19T06:59:31;9.05;;;2.15;;
67655;SDS011;54443;51.464;-2.584;2022-08-19T07:01:58;8.13;;;1.80;;
67655;SDS011;54443;51.464;-2.584;2022-08-19T07:04:26;8.95;;;2.20;;
67655;SDS011;54443;51.464;-2.584;2022-08-19T07:07:08;8.27;;;1.77;;
67655;SDS011;54443;51.464;-2.584;2022-08-19T07:09:39;5.07;;;1.40;;
67655;SDS011;54443;51.464;-2.584;2022-08-19T07:12:07;8.60;;;1.50;;
67655;SDS011;54443;51.464;-2.584;2022-08-19T07:14:35;4.95;;;1.20;;
67655;SDS011;54443;51.464;-2.584;2022-08-19T07:17:02;6.22;;;1.58;;
67655;SDS011;54443;51.464;-2.584;2022-08-19T07:19:33;4.35;;;1.25;;
67655;SDS011;54443;51.464;-2.584;2022-08-19T07:22:00;7.88;;;1.40;;
67655;SDS011;54443;51.464;-2.584;2022-08-19T07:24:28;7.32;;;1.58;;
67655;SDS011;54443;51.464;-2.584;2022-08-19T07:26:55;7.63;;;1.65;;
67655;SDS011;54443;51.464;-2.584;2022-08-19T07:29:22;6.97;;;1.77;;
67655;SDS011;54443;51.464;-2.584;2022-08-19T07:31:51;7.90;;;1.77;;
67655;SDS011;54443;51.464;-2.584;2022-08-19T07:34:17;6.38;;;1.60;;
67655;SDS011;54443;51.464;-2.584;2022-08-19T07:36:53;6.65;;;1.85;;
67655;SDS011;54443;51.464;-2.584;2022-08-19T07:39:22;8.63;;;2.08;;
67655;SDS011;54443;51.464;-2.584;2022-08-19T07:41:53;6.15;;;1.50;;
67655;SDS011;54443;51.464;-2.584;2022-08-19T07:44:19;8.95;;;1.77;;
67655;SDS011;54443;51.464;-2.584;2022-08-19T07:46:46;9.90;;;2.05;;
67655;SDS011;54443;51.464;-2.584;2022-08-19T07:49:14;7.35;;;1.55;;
67655;SDS011;54443;51.464;-2.584;2022-08-19T07:52:06;9.30;;;1.52;;
67655;SDS011;54443;51.464;-2.584;2022-08-19T07:54:33;4.22;;;1.20;;
67655;SDS011;54443;51.464;-2.584;2022-08-19T07:57:00;5.38;;;1.25;;
67655;SDS011;54443;51.464;-2.584;2022-08-19T07:59:26;6.07;;;1.30;;
67655;SDS011;54443;51.464;-2.584;2022-08-19T08:01:53;7.85;;;1.38;;
67655;SDS011;54443;51.464;-2.584;2022-08-19T08:04:19;1.88;;;1.08;;
67655;SDS011;54443;51.464;-2.584;2022-08-19T08:07:04;6.80;;;1.70;;
67655;SDS011;54443;51.464;-2.584;2022-08-19T08:09:49;7.00;;;1.80;;
67655;SDS011;54443;51.464;-2.584;2022-08-19T08:12:27;6.78;;;1.58;;
67655;SDS011;54443;51.464;-2.584;2022-08-19T08:14:58;6.63;;;1.70;;
67655;SDS011;54443;51.464;-2.584;2022-08-19T08:17:28;4.75;;;1.42;;
67655;SDS011;54443;51.464;-2.584;2022-08-19T08:19:54;8.25;;;1.67;;
67655;SDS011;54443;51.464;-2.584;2022-08-19T08:22:20;8.85;;;1.67;;
67655;SDS011;54443;51.464;-2.584;2022-08-19T08:25:07;6.05;;;1.25;;
67655;SDS011;54443;51.464;-2.584;2022-08-19T08:27:39;11.73;;;1.73;;
67655;SDS011;54443;51.464;-2.584;2022-08-19T08:30:10;6.40;;;1.35;;
67655;SDS011;54443;51.464;-2.584;2022-08-19T08:32:37;6.35;;;1.80;;
67655;SDS011;54443;51.464;-2.584;2022-08-19T08:35:08;4.85;;;1.50;;
67655;SDS011;54443;51.464;-2.584;2022-08-19T08:37:36;6.53;;;1.40;;
67655;SDS011;54443;51.464;-2.584;2022-08-19T08:40:07;9.05;;;1.50;;
67655;SDS011;54443;51.464;-2.584;2022-08-19T08:42:54;8.20;;;1.75;;
67655;SDS011;54443;51.464;-2.584;2022-08-19T08:45:25;5.90;;;1.75;;
67655;SDS011;54443;51.464;-2.584;2022-08-19T08:47:52;7.47;;;1.42;;
67655;SDS011;54443;51.464;-2.584;2022-08-19T08:50:35;14.35;;;1.65;;
67655;SDS011;54443;51.464;-2.584;2022-08-19T08:53:04;9.00;;;1.65;;
67655;SDS011;54443;51.464;-2.584;2022-08-19T08:55:31;6.00;;;1.63;;
67655;SDS011;54443;51.464;-2.584;2022-08-19T08:58:04;10.25;;;1.73;;
67655;SDS011;54443;51.464;-2.584;2022-08-19T09:00:33;7.60;;;1.88;;
67655;SDS011;54443;51.464;-2.584;2022-08-19T09:03:00;9.63;;;1.63;;
67655;SDS011;54443;51.464;-2.584;2022-08-19T09:08:07;7.20;;;1.27;;
67655;SDS011;54443;51.464;-2.584;2022-08-19T09:10:52;8.88;;;1.33;;
67655;SDS011;54443;51.464;-2.584;2022-08-19T09:16:10;6.78;;;1.58;;
67655;SDS011;54443;51.464;-2.584;2022-08-19T09:18:54;9.77;;;1.45;;
67655;SDS011;54443;51.464;-2.584;2022-08-19T09:21:22;6.47;;;1.53;;
67655;SDS011;54443;51.464;-2.584;2022-08-19T09:23:50;8.95;;;1.30;;
67655;SDS011;54443;51.464;-2.584;2022-08-19T09:26:16;5.90;;;1.40;;
67655;SDS011;54443;51.464;-2.584;2022-08-19T09:28:46;8.20;;;1.42;;
67655;SDS011;54443;51.464;-2.584;2022-08-19T09:31:22;3.95;;;1.30;;
67655;SDS011;54443;51.464;-2.584;2022-08-19T09:33:49;7.55;;;1.73;;
67655;SDS011;54443;51.464;-2.584;2022-08-19T09:36:16;6.95;;;1.40;;
67655;SDS011;54443;51.464;-2.584;2022-08-19T09:38:43;4.43;;;1.40;;
67655;SDS011;54443;51.464;-2.584;2022-08-19T09:41:13;7.70;;;1.70;;
67655;SDS011;54443;51.464;-2.584;2022-08-19T09:43:41;5.32;;;1.27;;
67655;SDS011;54443;51.464;-2.584;2022-08-19T09:46:10;6.10;;;1.50;;
67655;SDS011;54443;51.464;-2.584;2022-08-19T09:48:36;6.97;;;1.70;;
67655;SDS011;54443;51.464;-2.584;2022-08-19T09:51:06;7.88;;;1.60;;
67655;SDS011;54443;51.464;-2.584;2022-08-19T09:53:37;4.77;;;1.53;;
67655;SDS011;54443;51.464;-2.584;2022-08-19T09:56:03;7.75;;;1.80;;
67655;SDS011;54443;51.464;-2.584;2022-08-19T09:58:30;10.00;;;2.22;;
67655;SDS011;54443;51.464;-2.584;2022-08-19T10:00:57;7.13;;;1.40;;
67655;SDS011;54443;51.464;-2.584;2022-08-19T10:03:23;8.70;;;1.70;;
67655;SDS011;54443;51.464;-2.584;2022-08-19T10:05:49;11.23;;;1.73;;
67655;SDS011;54443;51.464;-2.584;2022-08-19T10:08:27;7.95;;;1.85;;
67655;SDS011;54443;51.464;-2.584;2022-08-19T10:10:55;14.30;;;1.80;;
67655;SDS011;54443;51.464;-2.584;2022-08-19T10:13:22;9.35;;;1.73;;
67655;SDS011;54443;51.464;-2.584;2022-08-19T10:15:52;6.60;;;1.45;;
67655;SDS011;54443;51.464;-2.584;2022-08-19T10:18:19;10.20;;;1.83;;
67655;SDS011;54443;51.464;-2.584;2022-08-19T10:20:45;10.10;;;1.83;;
67655;SDS011;54443;51.464;-2.584;2022-08-19T10:23:12;9.82;;;2.15;;
67655;SDS011;54443;51.464;-2.584;2022-08-19T10:25:37;8.90;;;2.08;;
67655;SDS011;54443;51.464;-2.584;2022-08-19T10:28:03;10.32;;;2.13;;
67655;SDS011;54443;51.464;-2.584;2022-08-19T10:30:30;8.00;;;1.83;;
67655;SDS011;54443;51.464;-2.584;2022-08-19T10:32:56;7.97;;;1.60;;
67655;SDS011;54443;51.464;-2.584;2022-08-19T10:35:21;7.88;;;2.17;;
67655;SDS011;54443;51.464;-2.584;2022-08-19T10:37:47;7.18;;;2.28;;
67655;SDS011;54443;51.464;-2.584;2022-08-19T10:40:13;14.13;;;1.85;;
67655;SDS011;54443;51.464;-2.584;2022-08-19T10:42:38;8.75;;;1.60;;
67655;SDS011;54443;51.464;-2.584;2022-08-19T10:45:04;7.30;;;1.50;;
67655;SDS011;54443;51.464;-2.584;2022-08-19T10:47:31;6.40;;;1.63;;
67655;SDS011;54443;51.464;-2.584;2022-08-19T10:49:57;8.30;;;1.88;;
67655;SDS011;54443;51.464;-2.584;2022-08-19T10:52:45;5.05;;;1.45;;
67655;SDS011;54443;51.464;-2.584;2022-08-19T10:55:12;6.30;;;1.50;;
67655;SDS011;54443;51.464;-2.584;2022-08-19T10:57:55;7.45;;;1.75;;
67655;SDS011;54443;51.464;-2.584;2022-08-19T11:00:23;5.65;;;1.95;;
67655;SDS011;54443;51.464;-2.584;2022-08-19T11:02:49;5.75;;;1.90;;
67655;SDS011;54443;51.464;-2.584;2022-08-19T11:05:14;15.45;;;2.75;;
67655;SDS011;54443;51.464;-2.584;2022-08-19T11:07:41;5.55;;;1.52;;
67655;SDS011;54443;51.464;-2.584;2022-08-19T11:10:08;9.50;;;1.95;;
67655;SDS011;54443;51.464;-2.584;2022-08-19T11:12:36;8.18;;;2.05;;
67655;SDS011;54443;51.464;-2.584;2022-08-19T11:15:03;5.35;;;1.40;;
67655;SDS011;54443;51.464;-2.584;2022-08-19T11:17:29;5.45;;;1.80;;
67655;SDS011;54443;51.464;-2.584;2022-08-19T11:19:57;7.80;;;1.92;;
67655;SDS011;54443;51.464;-2.584;2022-08-19T11:22:22;9.50;;;2.00;;
67655;SDS011;54443;51.464;-2.584;2022-08-19T11:24:47;6.72;;;1.73;;
67655;SDS011;54443;51.464;-2.584;2022-08-19T11:27:13;5.53;;;1.75;;
67655;SDS011;54443;51.464;-2.584;2022-08-19T11:29:39;7.03;;;1.60;;
67655;SDS011;54443;51.464;-2.584;2022-08-19T11:32:05;5.13;;;2.00;;
67655;SDS011;54443;51.464;-2.584;2022-08-19T11:34:33;8.60;;;2.08;;
67655;SDS011;54443;51.464;-2.584;2022-08-19T11:37:00;14.93;;;1.95;;
67655;SDS011;54443;51.464;-2.584;2022-08-19T11:39:28;8.43;;;1.85;;
67655;SDS011;54443;51.464;-2.584;2022-08-19T11:41:55;8.48;;;2.00;;
67655;SDS011;54443;51.464;-2.584;2022-08-19T11:44:22;6.82;;;1.75;;
67655;SDS011;54443;51.464;-2.584;2022-08-19T11:46:48;9.32;;;1.60;;
67655;SDS011;54443;51.464;-2.584;2022-08-19T11:49:15;8.63;;;1.50;;
67655;SDS011;54443;51.464;-2.584;2022-08-19T11:51:41;7.65;;;1.65;;
67655;SDS011;54443;51.464;-2.584;2022-08-19T11:54:08;7.85;;;1.70;;
67655;SDS011;54443;51.464;-2.584;2022-08-19T11:56:34;12.60;;;1.83;;
67655;SDS011;54443;51.464;-2.584;2022-08-19T11:59:01;8.02;;;1.80;;
67655;SDS011;54443;51.464;-2.584;2022-08-19T12:01:27;8.35;;;2.05;;
67655;SDS011;54443;51.464;-2.584;2022-08-19T12:03:54;10.05;;;2.17;;
67655;SDS011;54443;51.464;-2.584;2022-08-19T12:06:27;9.40;;;1.60;;
67655;SDS011;54443;51.464;-2.584;2022-08-19T12:08:54;9.57;;;1.48;;
67655;SDS011;54443;51.464;-2.584;2022-08-19T12:11:21;5.50;;;1.40;;
67655;SDS011;54443;51.464;-2.584;2022-08-19T12:13:47;10.60;;;2.05;;
67655;SDS011;54443;51.464;-2.584;2022-08-19T12:16:14;9.20;;;1.40;;
67655;SDS011;54443;51.464;-2.584;2022-08-19T12:18:42;9.70;;;1.60;;
67655;SDS011;54443;51.464;-2.584;2022-08-19T12:23:43;10.20;;;1.95;;
67655;SDS011;54443;51.464;-2.584;2022-08-19T12:26:10;9.30;;;1.55;;
67655;SDS011;54443;51.464;-2.584;2022-08-19T12:28:36;7.80;;;1.60;;
67655;SDS011;54443;51.464;-2.584;2022-08-19T12:31:02;8.48;;;1.85;;
67655;SDS011;54443;51.464;-2.584;2022-08-19T12:33:28;5.13;;;1.48;;
67655;SDS011;54443;51.464;-2.584;2022-08-19T12:35:54;7.15;;;1.58;;
67655;SDS011;54443;51.464;-2.584;2022-08-19T12:38:20;4.60;;;1.25;;
67655;SDS011;54443;51.464;-2.584;2022-08-19T12:40:49;6.63;;;1.30;;
67655;SDS011;54443;51.464;-2.584;2022-08-19T12:43:16;4.63;;;1.10;;
67655;SDS011;54443;51.464;-2.584;2022-08-19T12:45:42;8.90;;;1.35;;
67655;SDS011;54443;51.464;-2.584;2022-08-19T12:48:10;11.00;;;1.60;;
67655;SDS011;54443;51.464;-2.584;2022-08-19T12:50:38;8.88;;;1.50;;
67655;SDS011;54443;51.464;-2.584;2022-08-19T12:53:04;7.53;;;1.85;;
67655;SDS011;54443;51.464;-2.584;2022-08-19T12:55:30;5.35;;;1.58;;
67655;SDS011;54443;51.464;-2.584;2022-08-19T12:57:55;4.20;;;1.10;;
67655;SDS011;54443;51.464;-2.584;2022-08-19T13:00:21;7.75;;;1.20;;
67655;SDS011;54443;51.464;-2.584;2022-08-19T13:02:48;11.07;;;1.30;;
67655;SDS011;54443;51.464;-2.584;2022-08-19T13:05:19;7.05;;;1.48;;
67655;SDS011;54443;51.464;-2.584;2022-08-19T13:07:47;5.20;;;1.50;;
67655;SDS011;54443;51.464;-2.584;2022-08-19T13:10:15;7.93;;;2.92;;
67655;SDS011;54443;51.464;-2.584;2022-08-19T13:12:42;5.07;;;1.50;;
67655;SDS011;54443;51.464;-2.584;2022-08-19T13:15:09;6.72;;;1.45;;
67655;SDS011;54443;51.464;-2.584;2022-08-19T13:17:35;3.58;;;1.23;;
67655;SDS011;54443;51.464;-2.584;2022-08-19T13:20:01;7.53;;;1.58;;
67655;SDS011;54443;51.464;-2.584;2022-08-19T13:22:27;5.70;;;1.30;;
67655;SDS011;54443;51.464;-2.584;2022-08-19T13:24:53;7.40;;;1.88;;
67655;SDS011;54443;51.464;-2.584;2022-08-19T13:27:18;9.48;;;1.83;;
67655;SDS011;54443;51.464;-2.584;2022-08-19T13:29:43;5.55;;;1.33;;
67655;SDS011;54443;51.464;-2.584;2022-08-19T13:32:28;7.63;;;1.67;;
67655;SDS011;54443;51.464;-2.584;2022-08-19T13:35:13;5.45;;;1.45;;
67655;SDS011;54443;51.464;-2.584;2022-08-19T13:37:40;6.82;;;1.55;;
67655;SDS011;54443;51.464;-2.584;2022-08-19T13:40:09;5.75;;;1.10;;
67655;SDS011;54443;51.464;-2.584;2022-08-19T13:42:40;6.85;;;1.27;;
67655;SDS011;54443;51.464;-2.584;2022-08-19T13:45:05;6.57;;;1.27;;
67655;SDS011;54443;51.464;-2.584;2022-08-19T13:47:32;6.07;;;1.70;;
67655;SDS011;54443;51.464;-2.584;2022-08-19T13:49:59;4.90;;;1.35;;
67655;SDS011;54443;51.464;-2.584;2022-08-19T13:52:25;4.35;;;1.15;;
67655;SDS011;54443;51.464;-2.584;2022-08-19T13:54:51;7.05;;;1.02;;
67655;SDS011;54443;51.464;-2.584;2022-08-19T13:57:16;5.72;;;1.65;;
67655;SDS011;54443;51.464;-2.584;2022-08-19T13:59:42;6.70;;;1.25;;
67655;SDS011;54443;51.464;-2.584;2022-08-19T14:02:07;2.35;;;0.90;;
67655;SDS011;54443;51.464;-2.584;2022-08-19T14:04:33;5.20;;;1.08;;
67655;SDS011;54443;51.464;-2.584;2022-08-19T14:06:58;6.05;;;1.08;;
67655;SDS011;54443;51.464;-2.584;2022-08-19T14:09:23;5.38;;;0.90;;
67655;SDS011;54443;51.464;-2.584;2022-08-19T14:11:49;6.32;;;1.23;;
67655;SDS011;54443;51.464;-2.584;2022-08-19T14:14:15;4.28;;;1.10;;
67655;SDS011;54443;51.464;-2.584;2022-08-19T14:16:41;3.33;;;1.13;;
67655;SDS011;54443;51.464;-2.584;2022-08-19T14:19:07;0.95;;;0.73;;
67655;SDS011;54443;51.464;-2.584;2022-08-19T14:21:33;4.95;;;0.90;;
67655;SDS011;54443;51.464;-2.584;2022-08-19T14:23:59;4.35;;;1.00;;
67655;SDS011;54443;51.464;-2.584;2022-08-19T14:26:25;3.40;;;0.90;;
67655;SDS011;54443;51.464;-2.584;2022-08-19T14:28:51;3.20;;;1.15;;
67655;SDS011;54443;51.464;-2.584;2022-08-19T14:31:17;5.47;;;1.05;;
67655;SDS011;54443;51.464;-2.584;2022-08-19T14:33:44;5.47;;;1.13;;
67655;SDS011;54443;51.464;-2.584;2022-08-19T14:36:11;5.05;;;1.05;;
67655;SDS011;54443;51.464;-2.584;2022-08-19T14:38:36;3.28;;;1.13;;
67655;SDS011;54443;51.464;-2.584;2022-08-19T14:41:15;4.57;;;1.38;;
67655;SDS011;54443;51.464;-2.584;2022-08-19T14:43:45;4.35;;;1.45;;
67655;SDS011;54443;51.464;-2.584;2022-08-19T14:46:12;5.35;;;1.00;;